Todos
Hunter Island Airport YHTR Condições meteorológicas
There is no TAF data available at YHTR or any nearby airports.
There is no METAR data available at YHTR. Showing METAR data for YSMI (28 mi SE).
Histórico recente de METAR SIO (sem dados para YHTR)
| Date | Time (AEST) | Flight Rules | Wind Dir. | Speed | Type | Height AGL (ft) | Visibility | Temp (°C) | Temp (°F) | Dew Point (°C) | Dew Point (°F) | Rel. Humid. | Pressure | Density Altitude | Remarks |
|---|---|---|---|---|---|---|---|---|---|---|---|---|---|---|---|
| 03-Mai | 15:00 | n/a | 40° | 12 kt | Missing | 17° | 62° | 16° | 60° | 94% | 1008 mb | 425 ft | |||
| 03-Mai | 14:00 | n/a | 30° | 14 kt | Missing | 17° | 62° | 16° | 60° | 94% | 1008 mb | 425 ft | |||
| 03-Mai | 13:01 | n/a | 30° | 15 kt | Missing | 17° | 62° | 16° | 60° | 94% | 1009 mb | 395 ft | Wind gusting to 29 KT | ||
| 03-Mai | 12:00 | n/a | 70° | 13 kt | Missing | 17° | 62° | 15° | 59° | 88% | 1009 mb | 395 ft | |||
| 03-Mai | 11:00 | n/a | 80° | 16 kt | Missing | 17° | 62° | 16° | 60° | 94% | 1010 mb | 366 ft | |||
| 03-Mai | 10:00 | n/a | 80° | 17 kt | Missing | 17° | 62° | 16° | 60° | 94% | 1010 mb | 366 ft | |||
| 03-Mai | 09:00 | n/a | 80° | 17 kt | Missing | 16° | 60° | 15° | 59° | 94% | 1012 mb | 187 ft | |||
| 03-Mai | 08:00 | n/a | 60° | 12 kt | Missing | 16° | 60° | 15° | 59° | 94% | 1012 mb | 187 ft | |||
| 03-Mai | 07:00 | n/a | 60° | 12 kt | Missing | 16° | 60° | 15° | 59° | 94% | 1012 mb | 187 ft | |||
| 03-Mai | 06:00 | n/a | 90° | 10 kt | Missing | 16° | 60° | 15° | 59° | 94% | 1012 mb | 187 ft | |||
| 03-Mai | 05:00 | n/a | 90° | 10 kt | Missing | 16° | 60° | 15° | 59° | 94% | 1012 mb | 187 ft | |||
| 03-Mai | 04:00 | n/a | 80° | 11 kt | Missing | 16° | 60° | 15° | 59° | 94% | 1012 mb | 187 ft | |||
| 03-Mai | 03:00 | n/a | 80° | 8 kt | Missing | 16° | 60° | 14° | 57° | 88% | 1013 mb | 157 ft | |||
| 03-Mai | 02:00 | n/a | 80° | 10 kt | Missing | 17° | 62° | 14° | 57° | 82% | 1013 mb | 277 ft | |||
| 03-Mai | 01:00 | n/a | 100° | 6 kt | Missing | 16° | 60° | 14° | 57° | 88% | 1014 mb | 128 ft | |||
| 03-Mai | 00:00 | n/a | 60° | 8 kt | Missing | 17° | 62° | 14° | 57° | 82% | 1014 mb | 248 ft | |||
| 02-Mai | 23:00 | n/a | 60° | 11 kt | Missing | 19° | 66° | 13° | 55° | 68% | 1015 mb | 458 ft | |||
| 02-Mai | 22:00 | n/a | 70° | 14 kt | Missing | 19° | 66° | 13° | 55° | 68% | 1014 mb | 488 ft | |||
| 02-Mai | 21:00 | n/a | 70° | 13 kt | Missing | 18° | 64° | 13° | 55° | 73% | 1014 mb | 368 ft | |||
| 02-Mai | 20:00 | n/a | 70° | 13 kt | Missing | 18° | 64° | 14° | 57° | 77% | 1014 mb | 368 ft | |||
| 02-Mai | 19:00 | n/a | 70° | 13 kt | Missing | 18° | 64° | 13° | 55° | 73% | 1014 mb | 368 ft | |||
| 02-Mai | 18:00 | n/a | 70° | 14 kt | Missing | 18° | 64° | 14° | 57° | 77% | 1014 mb | 368 ft | |||
| 02-Mai | 17:00 | n/a | 70° | 12 kt | Missing | 18° | 64° | 13° | 55° | 73% | 1014 mb | 368 ft | |||
| 02-Mai | 16:00 | n/a | 80° | 12 kt | Missing | 19° | 66° | 14° | 57° | 73% | 1015 mb | 458 ft |
Entrar
| Seu navegador não suporta. atualize seu navegador |
